sensor_id;sensor_type;location;lat;lon;timestamp;P1;durP1;ratioP1;P2;durP2;ratioP2
9716;SDS011;4897;43.570;27.832;2022-07-22T00:01:10;6.32;;;3.17;;
9716;SDS011;4897;43.570;27.832;2022-07-22T00:03:40;5.88;;;3.63;;
9716;SDS011;4897;43.570;27.832;2022-07-22T00:06:08;4.68;;;3.13;;
9716;SDS011;4897;43.570;27.832;2022-07-22T00:08:37;6.93;;;3.35;;
9716;SDS011;4897;43.570;27.832;2022-07-22T00:11:04;6.13;;;3.85;;
9716;SDS011;4897;43.570;27.832;2022-07-22T00:13:36;11.35;;;4.30;;
9716;SDS011;4897;43.570;27.832;2022-07-22T00:16:03;8.60;;;3.90;;
9716;SDS011;4897;43.570;27.832;2022-07-22T00:18:35;4.75;;;3.42;;
9716;SDS011;4897;43.570;27.832;2022-07-22T00:21:04;10.65;;;4.20;;
9716;SDS011;4897;43.570;27.832;2022-07-22T00:23:31;5.75;;;3.72;;
9716;SDS011;4897;43.570;27.832;2022-07-22T00:25:58;5.45;;;3.70;;
9716;SDS011;4897;43.570;27.832;2022-07-22T00:28:26;12.02;;;4.15;;
9716;SDS011;4897;43.570;27.832;2022-07-22T00:30:53;9.63;;;4.40;;
9716;SDS011;4897;43.570;27.832;2022-07-22T00:33:19;7.47;;;4.40;;
9716;SDS011;4897;43.570;27.832;2022-07-22T00:35:46;10.23;;;5.00;;
9716;SDS011;4897;43.570;27.832;2022-07-22T00:38:15;9.45;;;4.82;;
9716;SDS011;4897;43.570;27.832;2022-07-22T00:40:42;8.32;;;4.50;;
9716;SDS011;4897;43.570;27.832;2022-07-22T00:43:11;9.10;;;4.75;;
9716;SDS011;4897;43.570;27.832;2022-07-22T00:45:38;7.53;;;4.75;;
9716;SDS011;4897;43.570;27.832;2022-07-22T00:48:08;7.75;;;4.30;;
9716;SDS011;4897;43.570;27.832;2022-07-22T00:50:35;7.70;;;4.50;;
9716;SDS011;4897;43.570;27.832;2022-07-22T00:53:08;8.77;;;4.60;;
9716;SDS011;4897;43.570;27.832;2022-07-22T00:55:38;7.53;;;4.55;;
9716;SDS011;4897;43.570;27.832;2022-07-22T00:58:08;7.78;;;4.13;;
9716;SDS011;4897;43.570;27.832;2022-07-22T01:00:35;6.65;;;4.60;;
9716;SDS011;4897;43.570;27.832;2022-07-22T01:03:04;22.55;;;5.72;;
9716;SDS011;4897;43.570;27.832;2022-07-22T01:05:31;18.23;;;5.38;;
9716;SDS011;4897;43.570;27.832;2022-07-22T01:07:58;12.60;;;4.55;;
9716;SDS011;4897;43.570;27.832;2022-07-22T01:10:25;9.45;;;4.47;;
9716;SDS011;4897;43.570;27.832;2022-07-22T01:12:56;9.52;;;4.57;;
9716;SDS011;4897;43.570;27.832;2022-07-22T01:15:23;7.05;;;4.47;;
9716;SDS011;4897;43.570;27.832;2022-07-22T01:17:50;5.90;;;4.65;;
9716;SDS011;4897;43.570;27.832;2022-07-22T01:20:19;6.30;;;4.40;;
9716;SDS011;4897;43.570;27.832;2022-07-22T01:22:46;5.32;;;4.00;;
9716;SDS011;4897;43.570;27.832;2022-07-22T01:25:13;13.73;;;4.78;;
9716;SDS011;4897;43.570;27.832;2022-07-22T01:27:40;10.80;;;4.07;;
9716;SDS011;4897;43.570;27.832;2022-07-22T01:30:07;9.18;;;4.38;;
9716;SDS011;4897;43.570;27.832;2022-07-22T01:32:35;12.43;;;4.47;;
9716;SDS011;4897;43.570;27.832;2022-07-22T01:35:05;6.93;;;4.07;;
9716;SDS011;4897;43.570;27.832;2022-07-22T01:37:36;8.65;;;3.83;;
9716;SDS011;4897;43.570;27.832;2022-07-22T01:40:04;5.97;;;3.97;;
9716;SDS011;4897;43.570;27.832;2022-07-22T01:42:32;8.13;;;3.80;;
9716;SDS011;4897;43.570;27.832;2022-07-22T01:44:59;7.50;;;4.47;;
9716;SDS011;4897;43.570;27.832;2022-07-22T01:47:26;5.43;;;3.75;;
9716;SDS011;4897;43.570;27.832;2022-07-22T01:49:53;17.55;;;7.25;;
9716;SDS011;4897;43.570;27.832;2022-07-22T01:52:19;9.77;;;4.50;;
9716;SDS011;4897;43.570;27.832;2022-07-22T01:54:52;7.50;;;5.07;;
9716;SDS011;4897;43.570;27.832;2022-07-22T01:57:19;7.78;;;4.22;;
9716;SDS011;4897;43.570;27.832;2022-07-22T01:59:49;11.35;;;4.75;;
9716;SDS011;4897;43.570;27.832;2022-07-22T02:02:16;6.93;;;4.38;;
9716;SDS011;4897;43.570;27.832;2022-07-22T02:04:43;7.43;;;3.90;;
9716;SDS011;4897;43.570;27.832;2022-07-22T02:07:10;6.55;;;3.80;;
9716;SDS011;4897;43.570;27.832;2022-07-22T02:09:40;6.93;;;3.58;;
9716;SDS011;4897;43.570;27.832;2022-07-22T02:12:08;5.20;;;3.67;;
9716;SDS011;4897;43.570;27.832;2022-07-22T02:14:38;11.43;;;4.25;;
9716;SDS011;4897;43.570;27.832;2022-07-22T02:17:08;4.60;;;3.50;;
9716;SDS011;4897;43.570;27.832;2022-07-22T02:19:38;8.93;;;4.63;;
9716;SDS011;4897;43.570;27.832;2022-07-22T02:22:05;6.35;;;4.25;;
9716;SDS011;4897;43.570;27.832;2022-07-22T02:24:32;12.55;;;4.68;;
9716;SDS011;4897;43.570;27.832;2022-07-22T02:26:59;11.77;;;3.88;;
9716;SDS011;4897;43.570;27.832;2022-07-22T02:29:27;11.43;;;4.10;;
9716;SDS011;4897;43.570;27.832;2022-07-22T02:31:54;15.93;;;4.93;;
9716;SDS011;4897;43.570;27.832;2022-07-22T02:34:22;13.85;;;5.40;;
9716;SDS011;4897;43.570;27.832;2022-07-22T02:36:49;12.38;;;4.70;;
9716;SDS011;4897;43.570;27.832;2022-07-22T02:39:16;9.23;;;4.72;;
9716;SDS011;4897;43.570;27.832;2022-07-22T02:41:43;13.23;;;4.80;;
9716;SDS011;4897;43.570;27.832;2022-07-22T02:44:10;11.88;;;4.80;;
9716;SDS011;4897;43.570;27.832;2022-07-22T02:46:38;8.65;;;4.78;;
9716;SDS011;4897;43.570;27.832;2022-07-22T02:49:05;12.02;;;4.70;;
9716;SDS011;4897;43.570;27.832;2022-07-22T02:51:34;18.65;;;4.90;;
9716;SDS011;4897;43.570;27.832;2022-07-22T02:54:01;12.40;;;5.50;;
9716;SDS011;4897;43.570;27.832;2022-07-22T02:56:31;10.68;;;5.03;;
9716;SDS011;4897;43.570;27.832;2022-07-22T02:58:59;13.32;;;5.20;;
9716;SDS011;4897;43.570;27.832;2022-07-22T03:01:28;10.43;;;5.00;;
9716;SDS011;4897;43.570;27.832;2022-07-22T03:03:57;14.20;;;5.40;;
9716;SDS011;4897;43.570;27.832;2022-07-22T03:06:24;13.07;;;5.25;;
9716;SDS011;4897;43.570;27.832;2022-07-22T03:08:51;12.32;;;5.22;;
9716;SDS011;4897;43.570;27.832;2022-07-22T03:11:21;10.93;;;5.25;;
9716;SDS011;4897;43.570;27.832;2022-07-22T03:13:48;12.07;;;5.53;;
9716;SDS011;4897;43.570;27.832;2022-07-22T03:16:16;9.20;;;5.43;;
9716;SDS011;4897;43.570;27.832;2022-07-22T03:18:43;11.15;;;5.40;;
9716;SDS011;4897;43.570;27.832;2022-07-22T03:21:15;18.65;;;5.53;;
9716;SDS011;4897;43.570;27.832;2022-07-22T03:23:41;8.30;;;5.70;;
9716;SDS011;4897;43.570;27.832;2022-07-22T03:26:08;23.00;;;6.45;;
9716;SDS011;4897;43.570;27.832;2022-07-22T03:28:35;8.00;;;5.65;;
9716;SDS011;4897;43.570;27.832;2022-07-22T03:31:02;9.70;;;5.93;;
9716;SDS011;4897;43.570;27.832;2022-07-22T03:33:32;13.02;;;5.97;;
9716;SDS011;4897;43.570;27.832;2022-07-22T03:35:59;18.85;;;7.28;;
9716;SDS011;4897;43.570;27.832;2022-07-22T03:38:27;18.70;;;6.47;;
9716;SDS011;4897;43.570;27.832;2022-07-22T03:40:54;18.05;;;6.85;;
9716;SDS011;4897;43.570;27.832;2022-07-22T03:43:26;12.88;;;6.68;;
9716;SDS011;4897;43.570;27.832;2022-07-22T03:45:53;27.35;;;7.43;;
9716;SDS011;4897;43.570;27.832;2022-07-22T03:48:20;15.05;;;6.75;;
9716;SDS011;4897;43.570;27.832;2022-07-22T03:50:47;12.73;;;6.63;;
9716;SDS011;4897;43.570;27.832;2022-07-22T03:53:16;16.38;;;6.40;;
9716;SDS011;4897;43.570;27.832;2022-07-22T03:55:44;8.38;;;5.30;;
9716;SDS011;4897;43.570;27.832;2022-07-22T03:58:11;11.35;;;5.25;;
9716;SDS011;4897;43.570;27.832;2022-07-22T04:00:40;7.32;;;5.30;;
9716;SDS011;4897;43.570;27.832;2022-07-22T04:03:07;11.43;;;5.20;;
9716;SDS011;4897;43.570;27.832;2022-07-22T04:05:34;7.18;;;4.63;;
9716;SDS011;4897;43.570;27.832;2022-07-22T04:08:01;7.65;;;4.53;;
9716;SDS011;4897;43.570;27.832;2022-07-22T04:10:30;12.85;;;4.80;;
9716;SDS011;4897;43.570;27.832;2022-07-22T04:13:03;9.73;;;4.60;;
9716;SDS011;4897;43.570;27.832;2022-07-22T04:15:30;8.30;;;5.18;;
9716;SDS011;4897;43.570;27.832;2022-07-22T04:17:57;10.55;;;4.63;;
9716;SDS011;4897;43.570;27.832;2022-07-22T04:20:25;8.25;;;4.88;;
9716;SDS011;4897;43.570;27.832;2022-07-22T04:22:54;10.10;;;5.32;;
9716;SDS011;4897;43.570;27.832;2022-07-22T04:25:24;14.68;;;5.72;;
9716;SDS011;4897;43.570;27.832;2022-07-22T04:27:51;15.65;;;5.75;;
9716;SDS011;4897;43.570;27.832;2022-07-22T04:30:19;16.08;;;5.53;;
9716;SDS011;4897;43.570;27.832;2022-07-22T04:32:47;7.93;;;4.60;;
9716;SDS011;4897;43.570;27.832;2022-07-22T04:35:13;9.80;;;5.05;;
9716;SDS011;4897;43.570;27.832;2022-07-22T04:37:40;12.98;;;4.75;;
9716;SDS011;4897;43.570;27.832;2022-07-22T04:40:10;7.30;;;5.35;;
9716;SDS011;4897;43.570;27.832;2022-07-22T04:42:41;7.45;;;4.72;;
9716;SDS011;4897;43.570;27.832;2022-07-22T04:45:08;11.27;;;5.05;;
9716;SDS011;4897;43.570;27.832;2022-07-22T04:47:37;7.70;;;4.97;;
9716;SDS011;4897;43.570;27.832;2022-07-22T04:50:05;7.07;;;4.55;;
9716;SDS011;4897;43.570;27.832;2022-07-22T04:52:32;10.13;;;4.22;;
9716;SDS011;4897;43.570;27.832;2022-07-22T04:54:59;11.15;;;4.57;;
9716;SDS011;4897;43.570;27.832;2022-07-22T04:57:26;8.50;;;4.45;;
9716;SDS011;4897;43.570;27.832;2022-07-22T04:59:53;9.23;;;5.00;;
9716;SDS011;4897;43.570;27.832;2022-07-22T05:02:21;11.70;;;4.47;;
9716;SDS011;4897;43.570;27.832;2022-07-22T05:04:51;6.47;;;4.20;;
9716;SDS011;4897;43.570;27.832;2022-07-22T05:07:19;14.07;;;4.53;;
9716;SDS011;4897;43.570;27.832;2022-07-22T05:09:48;7.18;;;4.40;;
9716;SDS011;4897;43.570;27.832;2022-07-22T05:12:24;10.40;;;4.90;;
9716;SDS011;4897;43.570;27.832;2022-07-22T05:14:54;17.52;;;5.13;;
9716;SDS011;4897;43.570;27.832;2022-07-22T05:17:24;14.00;;;4.75;;
9716;SDS011;4897;43.570;27.832;2022-07-22T05:19:55;9.95;;;3.92;;
9716;SDS011;4897;43.570;27.832;2022-07-22T05:22:22;7.57;;;4.43;;
9716;SDS011;4897;43.570;27.832;2022-07-22T05:24:52;5.47;;;4.28;;
9716;SDS011;4897;43.570;27.832;2022-07-22T05:27:19;5.75;;;3.95;;
9716;SDS011;4897;43.570;27.832;2022-07-22T05:29:47;7.45;;;4.10;;
9716;SDS011;4897;43.570;27.832;2022-07-22T05:32:14;7.32;;;4.15;;
9716;SDS011;4897;43.570;27.832;2022-07-22T05:34:41;15.60;;;10.57;;
9716;SDS011;4897;43.570;27.832;2022-07-22T05:37:14;12.80;;;7.75;;
9716;SDS011;4897;43.570;27.832;2022-07-22T05:39:47;11.98;;;3.90;;
9716;SDS011;4897;43.570;27.832;2022-07-22T05:42:14;6.50;;;4.00;;
9716;SDS011;4897;43.570;27.832;2022-07-22T05:44:43;8.45;;;2.92;;
9716;SDS011;4897;43.570;27.832;2022-07-22T05:47:10;7.18;;;3.70;;
9716;SDS011;4897;43.570;27.832;2022-07-22T05:49:39;5.47;;;2.90;;
9716;SDS011;4897;43.570;27.832;2022-07-22T05:52:07;4.97;;;2.80;;
9716;SDS011;4897;43.570;27.832;2022-07-22T05:54:36;7.90;;;2.97;;
9716;SDS011;4897;43.570;27.832;2022-07-22T05:57:03;9.05;;;2.88;;
9716;SDS011;4897;43.570;27.832;2022-07-22T05:59:41;8.50;;;3.22;;
9716;SDS011;4897;43.570;27.832;2022-07-22T06:02:08;3.70;;;2.80;;
9716;SDS011;4897;43.570;27.832;2022-07-22T06:04:35;10.68;;;2.70;;
9716;SDS011;4897;43.570;27.832;2022-07-22T06:07:03;5.53;;;2.70;;
9716;SDS011;4897;43.570;27.832;2022-07-22T06:09:37;3.42;;;2.10;;
9716;SDS011;4897;43.570;27.832;2022-07-22T06:12:04;7.22;;;5.35;;
9716;SDS011;4897;43.570;27.832;2022-07-22T06:14:32;6.30;;;3.65;;
9716;SDS011;4897;43.570;27.832;2022-07-22T06:17:01;5.57;;;2.92;;
9716;SDS011;4897;43.570;27.832;2022-07-22T06:19:28;5.13;;;2.15;;
9716;SDS011;4897;43.570;27.832;2022-07-22T06:22:04;9.20;;;2.55;;
9716;SDS011;4897;43.570;27.832;2022-07-22T06:24:37;6.93;;;2.83;;
9716;SDS011;4897;43.570;27.832;2022-07-22T06:27:04;4.97;;;2.75;;
9716;SDS011;4897;43.570;27.832;2022-07-22T06:29:32;14.95;;;3.10;;
9716;SDS011;4897;43.570;27.832;2022-07-22T06:31:59;5.05;;;2.53;;
9716;SDS011;4897;43.570;27.832;2022-07-22T06:34:26;5.25;;;2.40;;
9716;SDS011;4897;43.570;27.832;2022-07-22T06:36:56;5.40;;;2.03;;
9716;SDS011;4897;43.570;27.832;2022-07-22T06:39:25;10.40;;;2.30;;
9716;SDS011;4897;43.570;27.832;2022-07-22T06:41:55;5.78;;;2.42;;
9716;SDS011;4897;43.570;27.832;2022-07-22T06:44:26;7.45;;;2.38;;
9716;SDS011;4897;43.570;27.832;2022-07-22T06:46:54;9.50;;;2.40;;
9716;SDS011;4897;43.570;27.832;2022-07-22T06:49:22;20.45;;;14.98;;
9716;SDS011;4897;43.570;27.832;2022-07-22T06:51:50;13.90;;;8.02;;
9716;SDS011;4897;43.570;27.832;2022-07-22T06:54:18;7.82;;;2.78;;
9716;SDS011;4897;43.570;27.832;2022-07-22T06:56:45;14.52;;;2.28;;
9716;SDS011;4897;43.570;27.832;2022-07-22T06:59:16;10.07;;;2.00;;
9716;SDS011;4897;43.570;27.832;2022-07-22T07:01:47;5.60;;;2.03;;
9716;SDS011;4897;43.570;27.832;2022-07-22T07:04:19;9.57;;;2.13;;
9716;SDS011;4897;43.570;27.832;2022-07-22T07:06:46;3.03;;;1.70;;
9716;SDS011;4897;43.570;27.832;2022-07-22T07:09:14;5.85;;;2.08;;
9716;SDS011;4897;43.570;27.832;2022-07-22T07:11:42;3.70;;;2.22;;
9716;SDS011;4897;43.570;27.832;2022-07-22T07:14:08;3.53;;;1.60;;
9716;SDS011;4897;43.570;27.832;2022-07-22T07:16:37;10.00;;;7.50;;
9716;SDS011;4897;43.570;27.832;2022-07-22T07:19:04;8.38;;;2.90;;
9716;SDS011;4897;43.570;27.832;2022-07-22T07:21:31;6.20;;;2.00;;
9716;SDS011;4897;43.570;27.832;2022-07-22T07:23:58;2.25;;;1.60;;
9716;SDS011;4897;43.570;27.832;2022-07-22T07:26:28;4.70;;;1.58;;
9716;SDS011;4897;43.570;27.832;2022-07-22T07:28:58;3.03;;;1.75;;
9716;SDS011;4897;43.570;27.832;2022-07-22T07:31:25;3.15;;;1.30;;
9716;SDS011;4897;43.570;27.832;2022-07-22T07:33:55;7.88;;;1.58;;
9716;SDS011;4897;43.570;27.832;2022-07-22T07:36:23;4.80;;;1.48;;
9716;SDS011;4897;43.570;27.832;2022-07-22T07:38:50;2.65;;;1.52;;
9716;SDS011;4897;43.570;27.832;2022-07-22T07:41:17;9.00;;;1.75;;
9716;SDS011;4897;43.570;27.832;2022-07-22T07:43:45;5.47;;;1.73;;
9716;SDS011;4897;43.570;27.832;2022-07-22T07:46:14;6.35;;;1.48;;
9716;SDS011;4897;43.570;27.832;2022-07-22T07:48:41;2.28;;;1.42;;
9716;SDS011;4897;43.570;27.832;2022-07-22T07:51:11;9.45;;;1.70;;
9716;SDS011;4897;43.570;27.832;2022-07-22T07:53:38;3.55;;;1.73;;
9716;SDS011;4897;43.570;27.832;2022-07-22T07:56:08;2.45;;;1.60;;
9716;SDS011;4897;43.570;27.832;2022-07-22T07:58:36;5.95;;;1.83;;
9716;SDS011;4897;43.570;27.832;2022-07-22T08:01:06;2.30;;;1.58;;
9716;SDS011;4897;43.570;27.832;2022-07-22T08:03:36;8.77;;;1.40;;
9716;SDS011;4897;43.570;27.832;2022-07-22T08:06:05;9.90;;;2.75;;
9716;SDS011;4897;43.570;27.832;2022-07-22T08:08:34;4.60;;;2.00;;
9716;SDS011;4897;43.570;27.832;2022-07-22T08:11:04;6.03;;;2.30;;
9716;SDS011;4897;43.570;27.832;2022-07-22T08:13:32;3.45;;;1.65;;
9716;SDS011;4897;43.570;27.832;2022-07-22T08:15:59;4.05;;;1.70;;
9716;SDS011;4897;43.570;27.832;2022-07-22T08:18:28;2.95;;;1.17;;
9716;SDS011;4897;43.570;27.832;2022-07-22T08:20:56;6.50;;;2.10;;
9716;SDS011;4897;43.570;27.832;2022-07-22T08:23:23;5.13;;;2.35;;
9716;SDS011;4897;43.570;27.832;2022-07-22T08:25:52;2.95;;;1.75;;
9716;SDS011;4897;43.570;27.832;2022-07-22T08:28:18;8.52;;;1.70;;
9716;SDS011;4897;43.570;27.832;2022-07-22T08:30:45;2.42;;;1.50;;
9716;SDS011;4897;43.570;27.832;2022-07-22T08:33:12;2.97;;;1.48;;
9716;SDS011;4897;43.570;27.832;2022-07-22T08:35:39;4.15;;;1.48;;
9716;SDS011;4897;43.570;27.832;2022-07-22T08:38:06;15.93;;;1.40;;
9716;SDS011;4897;43.570;27.832;2022-07-22T08:40:36;5.90;;;1.40;;
9716;SDS011;4897;43.570;27.832;2022-07-22T08:43:05;2.28;;;1.30;;
9716;SDS011;4897;43.570;27.832;2022-07-22T08:45:32;4.68;;;1.50;;
9716;SDS011;4897;43.570;27.832;2022-07-22T08:47:59;1.60;;;1.25;;
9716;SDS011;4897;43.570;27.832;2022-07-22T08:50:28;5.10;;;1.45;;
9716;SDS011;4897;43.570;27.832;2022-07-22T08:52:55;2.97;;;1.50;;
9716;SDS011;4897;43.570;27.832;2022-07-22T08:55:25;6.32;;;1.50;;
9716;SDS011;4897;43.570;27.832;2022-07-22T08:57:52;1.52;;;1.40;;
9716;SDS011;4897;43.570;27.832;2022-07-22T09:00:22;2.15;;;1.50;;
9716;SDS011;4897;43.570;27.832;2022-07-22T09:02:51;2.33;;;1.38;;
9716;SDS011;4897;43.570;27.832;2022-07-22T09:05:18;1.55;;;1.45;;
9716;SDS011;4897;43.570;27.832;2022-07-22T09:07:46;2.38;;;1.48;;
9716;SDS011;4897;43.570;27.832;2022-07-22T09:10:13;7.47;;;1.77;;
9716;SDS011;4897;43.570;27.832;2022-07-22T09:15:33;2.72;;;1.65;;
9716;SDS011;4897;43.570;27.832;2022-07-22T09:18:04;1.50;;;1.40;;
9716;SDS011;4897;43.570;27.832;2022-07-22T09:20:32;4.15;;;1.48;;
9716;SDS011;4897;43.570;27.832;2022-07-22T09:23:00;1.90;;;1.50;;
9716;SDS011;4897;43.570;27.832;2022-07-22T09:25:27;6.43;;;1.58;;
9716;SDS011;4897;43.570;27.832;2022-07-22T09:28:09;2.40;;;1.60;;
9716;SDS011;4897;43.570;27.832;2022-07-22T09:30:40;3.22;;;1.48;;
9716;SDS011;4897;43.570;27.832;2022-07-22T09:33:19;2.10;;;1.48;;
9716;SDS011;4897;43.570;27.832;2022-07-22T09:35:48;4.75;;;1.58;;
9716;SDS011;4897;43.570;27.832;2022-07-22T09:38:16;8.80;;;2.00;;
9716;SDS011;4897;43.570;27.832;2022-07-22T09:40:44;4.38;;;1.77;;
9716;SDS011;4897;43.570;27.832;2022-07-22T09:43:13;2.45;;;1.60;;
9716;SDS011;4897;43.570;27.832;2022-07-22T09:45:46;1.80;;;1.40;;
9716;SDS011;4897;43.570;27.832;2022-07-22T09:48:15;1.83;;;1.45;;
9716;SDS011;4897;43.570;27.832;2022-07-22T09:50:44;3.20;;;1.70;;
9716;SDS011;4897;43.570;27.832;2022-07-22T09:53:12;3.67;;;1.25;;
9716;SDS011;4897;43.570;27.832;2022-07-22T09:55:42;2.13;;;1.67;;
9716;SDS011;4897;43.570;27.832;2022-07-22T09:58:09;3.50;;;1.35;;
9716;SDS011;4897;43.570;27.832;2022-07-22T10:00:37;7.38;;;1.77;;
9716;SDS011;4897;43.570;27.832;2022-07-22T10:03:07;2.00;;;1.50;;
9716;SDS011;4897;43.570;27.832;2022-07-22T10:05:37;4.43;;;1.50;;
9716;SDS011;4897;43.570;27.832;2022-07-22T10:08:06;2.97;;;1.38;;
9716;SDS011;4897;43.570;27.832;2022-07-22T10:10:36;3.72;;;1.60;;
9716;SDS011;4897;43.570;27.832;2022-07-22T10:13:05;2.80;;;1.50;;
9716;SDS011;4897;43.570;27.832;2022-07-22T10:15:33;5.50;;;1.65;;
9716;SDS011;4897;43.570;27.832;2022-07-22T10:18:01;3.30;;;1.53;;
9716;SDS011;4897;43.570;27.832;2022-07-22T10:20:33;3.00;;;1.60;;
9716;SDS011;4897;43.570;27.832;2022-07-22T10:23:01;2.97;;;1.60;;
9716;SDS011;4897;43.570;27.832;2022-07-22T10:25:29;4.72;;;1.40;;
9716;SDS011;4897;43.570;27.832;2022-07-22T10:27:58;4.05;;;1.70;;
9716;SDS011;4897;43.570;27.832;2022-07-22T10:30:28;7.05;;;1.63;;
9716;SDS011;4897;43.570;27.832;2022-07-22T10:35:57;1.90;;;1.63;;
9716;SDS011;4897;43.570;27.832;2022-07-22T10:38:25;4.63;;;1.75;;
9716;SDS011;4897;43.570;27.832;2022-07-22T10:40:54;4.97;;;1.58;;
9716;SDS011;4897;43.570;27.832;2022-07-22T10:43:22;2.70;;;1.40;;
9716;SDS011;4897;43.570;27.832;2022-07-22T10:45:54;2.85;;;1.58;;
9716;SDS011;4897;43.570;27.832;2022-07-22T10:48:24;2.03;;;1.50;;
9716;SDS011;4897;43.570;27.832;2022-07-22T10:51:13;6.50;;;1.70;;
9716;SDS011;4897;43.570;27.832;2022-07-22T10:53:43;2.15;;;1.52;;
9716;SDS011;4897;43.570;27.832;2022-07-22T10:56:13;6.30;;;1.70;;
9716;SDS011;4897;43.570;27.832;2022-07-22T10:58:43;3.40;;;1.48;;
9716;SDS011;4897;43.570;27.832;2022-07-22T11:01:13;4.63;;;1.80;;
9716;SDS011;4897;43.570;27.832;2022-07-22T11:03:42;4.78;;;1.70;;
9716;SDS011;4897;43.570;27.832;2022-07-22T11:06:17;14.82;;;13.18;;
9716;SDS011;4897;43.570;27.832;2022-07-22T11:08:47;1.80;;;1.38;;
9716;SDS011;4897;43.570;27.832;2022-07-22T11:11:16;4.50;;;1.30;;
9716;SDS011;4897;43.570;27.832;2022-07-22T11:13:43;3.10;;;1.40;;
9716;SDS011;4897;43.570;27.832;2022-07-22T11:16:15;2.60;;;1.27;;
9716;SDS011;4897;43.570;27.832;2022-07-22T11:18:44;2.20;;;1.40;;
9716;SDS011;4897;43.570;27.832;2022-07-22T11:21:13;1.80;;;1.52;;
9716;SDS011;4897;43.570;27.832;2022-07-22T11:23:43;3.83;;;1.50;;
9716;SDS011;4897;43.570;27.832;2022-07-22T11:26:13;2.38;;;1.58;;
9716;SDS011;4897;43.570;27.832;2022-07-22T11:28:42;2.60;;;1.35;;
9716;SDS011;4897;43.570;27.832;2022-07-22T11:31:10;3.90;;;1.65;;
9716;SDS011;4897;43.570;27.832;2022-07-22T11:33:41;2.33;;;1.40;;
9716;SDS011;4897;43.570;27.832;2022-07-22T11:36:08;1.40;;;1.20;;
9716;SDS011;4897;43.570;27.832;2022-07-22T11:38:44;3.20;;;1.48;;
9716;SDS011;4897;43.570;27.832;2022-07-22T11:41:13;1.63;;;1.20;;
9716;SDS011;4897;43.570;27.832;2022-07-22T11:43:42;3.97;;;1.60;;
9716;SDS011;4897;43.570;27.832;2022-07-22T11:46:10;2.47;;;1.50;;
9716;SDS011;4897;43.570;27.832;2022-07-22T11:48:37;7.55;;;1.50;;
9716;SDS011;4897;43.570;27.832;2022-07-22T11:51:07;9.35;;;1.77;;
9716;SDS011;4897;43.570;27.832;2022-07-22T11:53:35;5.20;;;1.40;;
9716;SDS011;4897;43.570;27.832;2022-07-22T11:56:05;4.20;;;1.67;;
9716;SDS011;4897;43.570;27.832;2022-07-22T11:58:34;2.15;;;1.48;;
9716;SDS011;4897;43.570;27.832;2022-07-22T12:01:03;9.15;;;8.00;;
9716;SDS011;4897;43.570;27.832;2022-07-22T12:03:31;3.75;;;1.27;;
9716;SDS011;4897;43.570;27.832;2022-07-22T12:05:59;5.40;;;1.33;;
9716;SDS011;4897;43.570;27.832;2022-07-22T12:08:27;2.00;;;1.25;;
9716;SDS011;4897;43.570;27.832;2022-07-22T12:10:55;2.70;;;1.23;;
9716;SDS011;4897;43.570;27.832;2022-07-22T12:13:28;2.85;;;1.10;;
9716;SDS011;4897;43.570;27.832;2022-07-22T12:15:56;3.72;;;1.13;;
9716;SDS011;4897;43.570;27.832;2022-07-22T12:18:26;5.82;;;1.33;;
9716;SDS011;4897;43.570;27.832;2022-07-22T12:20:55;7.70;;;4.13;;
9716;SDS011;4897;43.570;27.832;2022-07-22T12:23:24;6.40;;;5.65;;
9716;SDS011;4897;43.570;27.832;2022-07-22T12:25:53;4.43;;;3.60;;
9716;SDS011;4897;43.570;27.832;2022-07-22T12:28:21;1.67;;;1.33;;
9716;SDS011;4897;43.570;27.832;2022-07-22T12:30:54;4.28;;;1.20;;
9716;SDS011;4897;43.570;27.832;2022-07-22T12:33:22;7.35;;;1.30;;
9716;SDS011;4897;43.570;27.832;2022-07-22T12:35:59;2.83;;;1.20;;
9716;SDS011;4897;43.570;27.832;2022-07-22T12:38:28;3.17;;;1.27;;
9716;SDS011;4897;43.570;27.832;2022-07-22T12:40:56;6.28;;;1.10;;
9716;SDS011;4897;43.570;27.832;2022-07-22T12:43:50;3.58;;;1.15;;
9716;SDS011;4897;43.570;27.832;2022-07-22T12:46:19;2.45;;;1.20;;
9716;SDS011;4897;43.570;27.832;2022-07-22T12:48:53;2.72;;;1.13;;
9716;SDS011;4897;43.570;27.832;2022-07-22T12:51:25;3.90;;;1.40;;
9716;SDS011;4897;43.570;27.832;2022-07-22T12:53:52;3.60;;;1.20;;
9716;SDS011;4897;43.570;27.832;2022-07-22T12:56:19;1.38;;;1.20;;
9716;SDS011;4897;43.570;27.832;2022-07-22T12:58:46;1.27;;;1.10;;
9716;SDS011;4897;43.570;27.832;2022-07-22T13:01:13;3.53;;;1.40;;
9716;SDS011;4897;43.570;27.832;2022-07-22T13:03:41;2.33;;;1.20;;
9716;SDS011;4897;43.570;27.832;2022-07-22T13:06:08;2.90;;;1.10;;
9716;SDS011;4897;43.570;27.832;2022-07-22T13:08:36;1.35;;;1.25;;
9716;SDS011;4897;43.570;27.832;2022-07-22T13:11:03;2.95;;;1.50;;
9716;SDS011;4897;43.570;27.832;2022-07-22T13:13:30;1.92;;;1.10;;
9716;SDS011;4897;43.570;27.832;2022-07-22T13:15:57;9.20;;;1.38;;
9716;SDS011;4897;43.570;27.832;2022-07-22T13:18:24;4.30;;;2.88;;
9716;SDS011;4897;43.570;27.832;2022-07-22T13:20:52;1.65;;;1.27;;
9716;SDS011;4897;43.570;27.832;2022-07-22T13:23:19;3.25;;;1.33;;
9716;SDS011;4897;43.570;27.832;2022-07-22T13:25:46;2.33;;;1.30;;
9716;SDS011;4897;43.570;27.832;2022-07-22T13:28:13;7.40;;;1.58;;
9716;SDS011;4897;43.570;27.832;2022-07-22T13:30:43;8.75;;;1.70;;
9716;SDS011;4897;43.570;27.832;2022-07-22T13:33:10;3.90;;;1.48;;
9716;SDS011;4897;43.570;27.832;2022-07-22T13:35:37;2.72;;;1.50;;
9716;SDS011;4897;43.570;27.832;2022-07-22T13:38:05;2.10;;;1.30;;
9716;SDS011;4897;43.570;27.832;2022-07-22T13:40:32;3.60;;;1.40;;
9716;SDS011;4897;43.570;27.832;2022-07-22T13:42:59;6.35;;;1.60;;
9716;SDS011;4897;43.570;27.832;2022-07-22T13:45:26;5.70;;;1.33;;
9716;SDS011;4897;43.570;27.832;2022-07-22T13:47:53;9.00;;;1.65;;
9716;SDS011;4897;43.570;27.832;2022-07-22T13:50:23;8.85;;;1.63;;
9716;SDS011;4897;43.570;27.832;2022-07-22T13:52:50;3.40;;;1.45;;
9716;SDS011;4897;43.570;27.832;2022-07-22T13:55:18;2.83;;;1.70;;
9716;SDS011;4897;43.570;27.832;2022-07-22T13:57:45;2.85;;;1.90;;
9716;SDS011;4897;43.570;27.832;2022-07-22T14:00:13;7.03;;;1.90;;
9716;SDS011;4897;43.570;27.832;2022-07-22T14:02:40;5.00;;;2.08;;
9716;SDS011;4897;43.570;27.832;2022-07-22T14:05:10;5.28;;;3.83;;
9716;SDS011;4897;43.570;27.832;2022-07-22T14:07:39;5.30;;;1.80;;
9716;SDS011;4897;43.570;27.832;2022-07-22T14:10:06;6.65;;;1.90;;
9716;SDS011;4897;43.570;27.832;2022-07-22T14:12:35;2.38;;;1.48;;
9716;SDS011;4897;43.570;27.832;2022-07-22T14:15:02;2.88;;;1.58;;
9716;SDS011;4897;43.570;27.832;2022-07-22T14:17:40;3.78;;;1.48;;
9716;SDS011;4897;43.570;27.832;2022-07-22T14:20:07;3.22;;;1.67;;
9716;SDS011;4897;43.570;27.832;2022-07-22T14:22:34;3.97;;;1.80;;
9716;SDS011;4897;43.570;27.832;2022-07-22T14:25:02;6.35;;;1.70;;
9716;SDS011;4897;43.570;27.832;2022-07-22T14:27:29;3.28;;;1.80;;
9716;SDS011;4897;43.570;27.832;2022-07-22T14:29:57;4.35;;;1.50;;
9716;SDS011;4897;43.570;27.832;2022-07-22T14:32:24;1.75;;;1.65;;
9716;SDS011;4897;43.570;27.832;2022-07-22T14:34:51;5.55;;;1.75;;
9716;SDS011;4897;43.570;27.832;2022-07-22T14:37:18;2.08;;;1.85;;
9716;SDS011;4897;43.570;27.832;2022-07-22T14:39:47;4.45;;;1.92;;
9716;SDS011;4897;43.570;27.832;2022-07-22T14:42:14;3.80;;;1.83;;
9716;SDS011;4897;43.570;27.832;2022-07-22T14:44:40;6.82;;;1.98;;
9716;SDS011;4897;43.570;27.832;2022-07-22T14:47:09;5.20;;;1.95;;
9716;SDS011;4897;43.570;27.832;2022-07-22T14:49:36;12.75;;;2.03;;
9716;SDS011;4897;43.570;27.832;2022-07-22T14:52:03;6.53;;;1.80;;
9716;SDS011;4897;43.570;27.832;2022-07-22T14:54:30;7.00;;;2.50;;
9716;SDS011;4897;43.570;27.832;2022-07-22T14:56:57;4.28;;;2.20;;
9716;SDS011;4897;43.570;27.832;2022-07-22T14:59:24;6.88;;;2.10;;
9716;SDS011;4897;43.570;27.832;2022-07-22T15:01:51;2.97;;;1.90;;
9716;SDS011;4897;43.570;27.832;2022-07-22T15:04:20;8.38;;;1.90;;
9716;SDS011;4897;43.570;27.832;2022-07-22T15:06:47;5.93;;;2.50;;
9716;SDS011;4897;43.570;27.832;2022-07-22T15:09:17;6.15;;;2.17;;
9716;SDS011;4897;43.570;27.832;2022-07-22T15:11:44;4.07;;;2.25;;